sensor_id;sensor_type;location;lat;lon;timestamp;pressure;altitude;pressure_sealevel;temperature;humidity
6851;BME280;3464;42.728;23.296;2023-04-21T00:01:04;94855.49;;;14.52;60.75
6851;BME280;3464;42.728;23.296;2023-04-21T00:03:31;94854.28;;;14.50;60.70
6851;BME280;3464;42.728;23.296;2023-04-21T00:05:58;94850.56;;;14.42;61.03
6851;BME280;3464;42.728;23.296;2023-04-21T00:08:24;94853.27;;;14.28;61.50
6851;BME280;3464;42.728;23.296;2023-04-21T00:10:52;94844.61;;;14.44;60.93
6851;BME280;3464;42.728;23.296;2023-04-21T00:13:20;94843.34;;;14.47;61.14
6851;BME280;3464;42.728;23.296;2023-04-21T00:15:46;94846.38;;;14.02;61.76
6851;BME280;3464;42.728;23.296;2023-04-21T00:18:13;94845.02;;;14.46;61.36
6851;BME280;3464;42.728;23.296;2023-04-21T00:20:40;94844.01;;;14.60;60.67
6851;BME280;3464;42.728;23.296;2023-04-21T00:23:06;94838.30;;;14.74;60.25
6851;BME280;3464;42.728;23.296;2023-04-21T00:25:33;94845.95;;;15.28;59.30
6851;BME280;3464;42.728;23.296;2023-04-21T00:28:01;94829.14;;;15.47;58.21
6851;BME280;3464;42.728;23.296;2023-04-21T00:30:27;94842.59;;;15.52;58.18
6851;BME280;3464;42.728;23.296;2023-04-21T00:32:54;94846.08;;;15.46;58.21
6851;BME280;3464;42.728;23.296;2023-04-21T00:35:21;94846.48;;;15.47;58.12
6851;BME280;3464;42.728;23.296;2023-04-21T00:37:48;94853.84;;;15.38;58.39
6851;BME280;3464;42.728;23.296;2023-04-21T00:40:15;94855.66;;;15.28;58.56
6851;BME280;3464;42.728;23.296;2023-04-21T00:42:42;94851.30;;;15.09;58.88
6851;BME280;3464;42.728;23.296;2023-04-21T00:45:08;94845.25;;;14.90;59.25
6851;BME280;3464;42.728;23.296;2023-04-21T00:47:35;94846.39;;;14.70;59.83
6851;BME280;3464;42.728;23.296;2023-04-21T00:50:02;94841.59;;;14.80;59.72
6851;BME280;3464;42.728;23.296;2023-04-21T00:52:29;94845.07;;;14.08;61.27
6851;BME280;3464;42.728;23.296;2023-04-21T00:54:56;94839.66;;;14.38;60.85
6851;BME280;3464;42.728;23.296;2023-04-21T00:57:23;94839.02;;;13.82;62.18
6851;BME280;3464;42.728;23.296;2023-04-21T00:59:51;94835.31;;;13.73;62.55
6851;BME280;3464;42.728;23.296;2023-04-21T01:02:18;94835.48;;;13.57;63.28
6851;BME280;3464;42.728;23.296;2023-04-21T01:04:44;94833.19;;;13.74;63.55
6851;BME280;3464;42.728;23.296;2023-04-21T01:07:11;94831.70;;;13.55;63.63
6851;BME280;3464;42.728;23.296;2023-04-21T01:09:39;94833.72;;;13.64;63.22
6851;BME280;3464;42.728;23.296;2023-04-21T01:12:07;94830.43;;;13.55;63.30
6851;BME280;3464;42.728;23.296;2023-04-21T01:14:34;94833.57;;;13.79;63.30
6851;BME280;3464;42.728;23.296;2023-04-21T01:17:00;94832.83;;;14.06;62.15
6851;BME280;3464;42.728;23.296;2023-04-21T01:19:29;94837.30;;;13.85;62.43
6851;BME280;3464;42.728;23.296;2023-04-21T01:21:55;94832.31;;;13.77;62.48
6851;BME280;3464;42.728;23.296;2023-04-21T01:24:23;94835.64;;;13.81;62.46
6851;BME280;3464;42.728;23.296;2023-04-21T01:26:50;94833.11;;;13.81;62.57
6851;BME280;3464;42.728;23.296;2023-04-21T01:29:16;94839.11;;;13.73;62.81
6851;BME280;3464;42.728;23.296;2023-04-21T01:31:43;94832.39;;;13.70;62.86
6851;BME280;3464;42.728;23.296;2023-04-21T01:34:10;94831.41;;;13.83;62.32
6851;BME280;3464;42.728;23.296;2023-04-21T01:36:37;94836.16;;;13.73;62.59
6851;BME280;3464;42.728;23.296;2023-04-21T01:39:03;94829.59;;;13.57;62.89
6851;BME280;3464;42.728;23.296;2023-04-21T01:41:31;94827.91;;;13.56;63.00
6851;BME280;3464;42.728;23.296;2023-04-21T01:43:58;94824.97;;;13.54;62.84
6851;BME280;3464;42.728;23.296;2023-04-21T01:46:24;94819.55;;;13.48;63.29
6851;BME280;3464;42.728;23.296;2023-04-21T01:48:51;94824.11;;;13.57;62.84
6851;BME280;3464;42.728;23.296;2023-04-21T01:51:17;94817.44;;;13.50;63.01
6851;BME280;3464;42.728;23.296;2023-04-21T01:53:44;94823.72;;;13.52;63.01
6851;BME280;3464;42.728;23.296;2023-04-21T01:56:12;94827.36;;;13.67;62.75
6851;BME280;3464;42.728;23.296;2023-04-21T01:58:38;94816.98;;;13.53;63.14
6851;BME280;3464;42.728;23.296;2023-04-21T02:01:05;94825.86;;;13.50;63.04
6851;BME280;3464;42.728;23.296;2023-04-21T02:03:32;94830.04;;;13.55;63.21
6851;BME280;3464;42.728;23.296;2023-04-21T02:05:59;94824.22;;;13.45;63.56
6851;BME280;3464;42.728;23.296;2023-04-21T02:08:26;94830.88;;;13.54;63.31
6851;BME280;3464;42.728;23.296;2023-04-21T02:10:52;94834.67;;;13.54;63.03
6851;BME280;3464;42.728;23.296;2023-04-21T02:13:19;94836.52;;;13.36;63.40
6851;BME280;3464;42.728;23.296;2023-04-21T02:15:47;94835.83;;;13.19;64.18
6851;BME280;3464;42.728;23.296;2023-04-21T02:18:14;94836.75;;;13.08;64.63
6851;BME280;3464;42.728;23.296;2023-04-21T02:20:40;94832.97;;;13.07;65.24
6851;BME280;3464;42.728;23.296;2023-04-21T02:23:07;94832.06;;;13.18;64.57
6851;BME280;3464;42.728;23.296;2023-04-21T02:25:33;94830.38;;;13.16;64.76
6851;BME280;3464;42.728;23.296;2023-04-21T02:28:00;94824.95;;;13.10;65.09
6851;BME280;3464;42.728;23.296;2023-04-21T02:30:27;94822.85;;;13.08;65.14
6851;BME280;3464;42.728;23.296;2023-04-21T02:32:53;94829.55;;;13.17;65.09
6851;BME280;3464;42.728;23.296;2023-04-21T02:35:20;94829.02;;;13.28;64.63
6851;BME280;3464;42.728;23.296;2023-04-21T02:37:47;94818.89;;;13.31;65.00
6851;BME280;3464;42.728;23.296;2023-04-21T02:40:13;94825.51;;;13.42;64.92
6851;BME280;3464;42.728;23.296;2023-04-21T02:42:40;94827.81;;;13.66;64.29
6851;BME280;3464;42.728;23.296;2023-04-21T02:45:07;94824.44;;;13.66;64.32
6851;BME280;3464;42.728;23.296;2023-04-21T02:47:35;94819.86;;;13.60;64.41
6851;BME280;3464;42.728;23.296;2023-04-21T02:50:02;94828.90;;;13.82;64.08
6851;BME280;3464;42.728;23.296;2023-04-21T02:52:29;94826.02;;;13.76;64.20
6851;BME280;3464;42.728;23.296;2023-04-21T02:54:56;94831.80;;;13.86;63.94
6851;BME280;3464;42.728;23.296;2023-04-21T02:57:23;94831.52;;;13.75;63.90
6851;BME280;3464;42.728;23.296;2023-04-21T02:59:50;94831.08;;;13.74;63.68
6851;BME280;3464;42.728;23.296;2023-04-21T03:02:18;94835.09;;;13.93;63.20
6851;BME280;3464;42.728;23.296;2023-04-21T03:04:44;94830.72;;;14.07;63.02
6851;BME280;3464;42.728;23.296;2023-04-21T03:07:11;94826.13;;;14.39;62.37
6851;BME280;3464;42.728;23.296;2023-04-21T03:09:38;94829.31;;;14.54;61.91
6851;BME280;3464;42.728;23.296;2023-04-21T03:12:05;94832.27;;;14.19;62.11
6851;BME280;3464;42.728;23.296;2023-04-21T03:14:32;94826.76;;;14.23;62.33
6851;BME280;3464;42.728;23.296;2023-04-21T03:16:59;94831.98;;;14.44;61.88
6851;BME280;3464;42.728;23.296;2023-04-21T03:19:28;94838.12;;;14.24;62.13
6851;BME280;3464;42.728;23.296;2023-04-21T03:21:55;94829.14;;;14.34;62.00
6851;BME280;3464;42.728;23.296;2023-04-21T03:24:22;94833.34;;;14.37;61.70
6851;BME280;3464;42.728;23.296;2023-04-21T03:26:49;94822.97;;;14.53;61.41
6851;BME280;3464;42.728;23.296;2023-04-21T03:29:15;94827.49;;;14.93;60.82
6851;BME280;3464;42.728;23.296;2023-04-21T03:31:42;94834.95;;;14.73;60.79
6851;BME280;3464;42.728;23.296;2023-04-21T03:34:13;94837.20;;;14.63;61.28
6851;BME280;3464;42.728;23.296;2023-04-21T03:36:40;94837.18;;;14.63;61.24
6851;BME280;3464;42.728;23.296;2023-04-21T03:51:46;94844.27;;;15.00;60.10
6851;BME280;3464;42.728;23.296;2023-04-21T03:54:39;94847.05;;;15.10;59.90
6851;BME280;3464;42.728;23.296;2023-04-21T04:10:08;94853.44;;;15.60;58.84
6851;BME280;3464;42.728;23.296;2023-04-21T04:12:43;94859.94;;;16.41;57.24
6851;BME280;3464;42.728;23.296;2023-04-21T04:24:55;94866.84;;;17.51;53.98
6851;BME280;3464;42.728;23.296;2023-04-21T04:27:27;94865.36;;;17.75;53.43
6851;BME280;3464;42.728;23.296;2023-04-21T04:30:28;94872.13;;;17.06;53.87
6851;BME280;3464;42.728;23.296;2023-04-21T04:33:01;94868.55;;;16.96;54.48
6851;BME280;3464;42.728;23.296;2023-04-21T04:35:30;94875.99;;;17.22;54.30
6851;BME280;3464;42.728;23.296;2023-04-21T04:37:57;94880.16;;;17.26;54.15
6851;BME280;3464;42.728;23.296;2023-04-21T04:40:25;94878.72;;;17.32;53.93
6851;BME280;3464;42.728;23.296;2023-04-21T06:11:37;94858.21;;;29.18;32.42
6851;BME280;3464;42.728;23.296;2023-04-21T06:14:04;94851.08;;;28.83;32.46
6851;BME280;3464;42.728;23.296;2023-04-21T06:16:34;94851.64;;;29.00;32.15
6851;BME280;3464;42.728;23.296;2023-04-21T06:19:01;94853.52;;;29.59;31.79
6851;BME280;3464;42.728;23.296;2023-04-21T06:21:39;94857.33;;;30.30;31.00
6851;BME280;3464;42.728;23.296;2023-04-21T06:24:30;94858.66;;;30.41;30.92
6851;BME280;3464;42.728;23.296;2023-04-21T06:26:59;94849.84;;;30.37;30.81
6851;BME280;3464;42.728;23.296;2023-04-21T06:29:45;94860.44;;;29.94;31.48
6851;BME280;3464;42.728;23.296;2023-04-21T06:32:25;94860.55;;;29.45;32.10
6851;BME280;3464;42.728;23.296;2023-04-21T06:41:43;94849.90;;;29.25;31.67
6851;BME280;3464;42.728;23.296;2023-04-21T06:44:16;94854.20;;;29.61;32.03
6851;BME280;3464;42.728;23.296;2023-04-21T06:53:31;94843.04;;;31.52;29.26
6851;BME280;3464;42.728;23.296;2023-04-21T07:11:39;94846.08;;;29.90;31.66
6851;BME280;3464;42.728;23.296;2023-04-21T07:17:51;94841.93;;;24.31;37.76
6851;BME280;3464;42.728;23.296;2023-04-21T07:24:05;94840.58;;;26.68;36.27
6851;BME280;3464;42.728;23.296;2023-04-21T07:33:20;94833.86;;;30.03;31.25
6851;BME280;3464;42.728;23.296;2023-04-21T07:39:15;94843.41;;;24.68;37.18
6851;BME280;3464;42.728;23.296;2023-04-21T07:44:38;94845.52;;;25.62;37.67
6851;BME280;3464;42.728;23.296;2023-04-21T07:47:23;94844.17;;;25.17;38.28
6851;BME280;3464;42.728;23.296;2023-04-21T07:59:59;94845.02;;;23.86;40.40
6851;BME280;3464;42.728;23.296;2023-04-21T08:02:34;94852.23;;;23.26;41.11
6851;BME280;3464;42.728;23.296;2023-04-21T08:05:26;94860.01;;;22.97;41.35
6851;BME280;3464;42.728;23.296;2023-04-21T08:23:50;94842.03;;;25.41;38.69
6851;BME280;3464;42.728;23.296;2023-04-21T08:26:21;94835.28;;;24.84;38.69
6851;BME280;3464;42.728;23.296;2023-04-21T08:29:05;94845.18;;;24.83;39.17
6851;BME280;3464;42.728;23.296;2023-04-21T08:31:50;94841.45;;;23.64;40.73
6851;BME280;3464;42.728;23.296;2023-04-21T08:37:43;94837.69;;;22.42;41.56
6851;BME280;3464;42.728;23.296;2023-04-21T08:40:17;94832.66;;;24.03;40.08
6851;BME280;3464;42.728;23.296;2023-04-21T09:38:38;94789.98;;;25.42;38.06
6851;BME280;3464;42.728;23.296;2023-04-21T09:41:04;94761.98;;;25.94;37.12
6851;BME280;3464;42.728;23.296;2023-04-21T09:43:31;94782.52;;;24.75;37.33
6851;BME280;3464;42.728;23.296;2023-04-21T09:45:59;94771.14;;;24.55;38.30
6851;BME280;3464;42.728;23.296;2023-04-21T09:48:25;94777.33;;;24.36;38.16
6851;BME280;3464;42.728;23.296;2023-04-21T09:50:53;94774.25;;;24.93;38.04
6851;BME280;3464;42.728;23.296;2023-04-21T09:53:21;94780.77;;;24.91;37.62
6851;BME280;3464;42.728;23.296;2023-04-21T09:55:48;94767.51;;;24.03;37.70
6851;BME280;3464;42.728;23.296;2023-04-21T09:58:16;94773.47;;;25.07;36.46
6851;BME280;3464;42.728;23.296;2023-04-21T10:00:44;94776.97;;;25.29;36.54
6851;BME280;3464;42.728;23.296;2023-04-21T10:03:11;94774.60;;;24.15;38.19
6851;BME280;3464;42.728;23.296;2023-04-21T10:05:37;94778.94;;;23.55;39.03
6851;BME280;3464;42.728;23.296;2023-04-21T10:08:05;94771.77;;;22.99;40.10
6851;BME280;3464;42.728;23.296;2023-04-21T10:10:31;94781.58;;;23.18;40.18
6851;BME280;3464;42.728;23.296;2023-04-21T10:12:58;94771.16;;;24.15;39.07
6851;BME280;3464;42.728;23.296;2023-04-21T10:15:37;94773.81;;;24.21;38.79
6851;BME280;3464;42.728;23.296;2023-04-21T10:18:17;94770.92;;;24.75;38.23
6851;BME280;3464;42.728;23.296;2023-04-21T10:33:33;94771.30;;;23.62;39.19
6851;BME280;3464;42.728;23.296;2023-04-21T10:36:16;94760.55;;;24.45;37.27
6851;BME280;3464;42.728;23.296;2023-04-21T10:38:53;94753.88;;;24.97;36.51
6851;BME280;3464;42.728;23.296;2023-04-21T10:41:33;94759.94;;;24.49;36.87
6851;BME280;3464;42.728;23.296;2023-04-21T10:44:17;94754.51;;;24.78;37.23
6851;BME280;3464;42.728;23.296;2023-04-21T10:46:51;94762.55;;;25.18;35.31
6851;BME280;3464;42.728;23.296;2023-04-21T10:49:23;94759.86;;;25.12;35.15
6851;BME280;3464;42.728;23.296;2023-04-21T10:52:05;94751.52;;;25.24;35.41
6851;BME280;3464;42.728;23.296;2023-04-21T10:55:04;94764.20;;;25.12;35.35
6851;BME280;3464;42.728;23.296;2023-04-21T10:57:42;94761.92;;;24.75;35.98
6851;BME280;3464;42.728;23.296;2023-04-21T11:00:18;94768.23;;;24.46;36.89
6851;BME280;3464;42.728;23.296;2023-04-21T11:03:06;94767.32;;;23.55;38.66
6851;BME280;3464;42.728;23.296;2023-04-21T11:05:38;94764.14;;;23.93;38.22
6851;BME280;3464;42.728;23.296;2023-04-21T11:08:12;94752.30;;;23.90;38.03
6851;BME280;3464;42.728;23.296;2023-04-21T11:10:47;94757.63;;;24.12;38.05
6851;BME280;3464;42.728;23.296;2023-04-21T11:13:19;94760.80;;;24.48;37.65
6851;BME280;3464;42.728;23.296;2023-04-21T11:15:58;94746.55;;;24.42;36.66
6851;BME280;3464;42.728;23.296;2023-04-21T11:18:35;94744.06;;;24.72;36.30
6851;BME280;3464;42.728;23.296;2023-04-21T11:21:08;94755.30;;;24.39;36.65
6851;BME280;3464;42.728;23.296;2023-04-21T11:23:39;94749.87;;;23.62;39.02
6851;BME280;3464;42.728;23.296;2023-04-21T11:26:18;94759.46;;;23.06;40.60
6851;BME280;3464;42.728;23.296;2023-04-21T11:28:47;94749.16;;;22.05;43.47
6851;BME280;3464;42.728;23.296;2023-04-21T11:31:14;94756.16;;;22.94;42.82
6851;BME280;3464;42.728;23.296;2023-04-21T11:33:42;94747.19;;;23.03;39.88
6851;BME280;3464;42.728;23.296;2023-04-21T11:36:11;94750.41;;;23.43;38.14
6851;BME280;3464;42.728;23.296;2023-04-21T11:38:40;94757.70;;;23.93;37.14
6851;BME280;3464;42.728;23.296;2023-04-21T11:41:09;94756.17;;;24.31;36.48
6851;BME280;3464;42.728;23.296;2023-04-21T11:43:38;94757.87;;;24.47;36.16
6851;BME280;3464;42.728;23.296;2023-04-21T11:46:15;94739.80;;;25.34;33.97
6851;BME280;3464;42.728;23.296;2023-04-21T11:48:39;94752.91;;;24.62;34.39
6851;BME280;3464;42.728;23.296;2023-04-21T11:51:14;94747.73;;;25.14;32.88
6851;BME280;3464;42.728;23.296;2023-04-21T11:53:41;94746.62;;;25.04;32.85
6851;BME280;3464;42.728;23.296;2023-04-21T11:56:08;94739.09;;;25.15;33.29
6851;BME280;3464;42.728;23.296;2023-04-21T11:58:34;94757.57;;;23.70;35.82
6851;BME280;3464;42.728;23.296;2023-04-21T12:01:07;94773.52;;;23.16;38.00
6851;BME280;3464;42.728;23.296;2023-04-21T12:03:34;94761.62;;;22.22;38.98
6851;BME280;3464;42.728;23.296;2023-04-21T12:06:01;94763.91;;;23.38;37.86
6851;BME280;3464;42.728;23.296;2023-04-21T12:08:29;94760.00;;;22.67;38.46
6851;BME280;3464;42.728;23.296;2023-04-21T12:10:56;94756.58;;;23.30;37.84
6851;BME280;3464;42.728;23.296;2023-04-21T12:13:27;94762.05;;;23.23;37.81
6851;BME280;3464;42.728;23.296;2023-04-21T12:15:55;94758.02;;;24.20;36.87
6851;BME280;3464;42.728;23.296;2023-04-21T12:18:25;94755.09;;;24.75;36.54
6851;BME280;3464;42.728;23.296;2023-04-21T12:20:50;94761.36;;;24.62;36.04
6851;BME280;3464;42.728;23.296;2023-04-21T12:23:16;94758.52;;;24.51;37.39
6851;BME280;3464;42.728;23.296;2023-04-21T12:25:42;94756.92;;;24.41;36.04
6851;BME280;3464;42.728;23.296;2023-04-21T12:28:09;94751.29;;;24.26;37.26
6851;BME280;3464;42.728;23.296;2023-04-21T12:30:36;94758.09;;;23.68;38.31
6851;BME280;3464;42.728;23.296;2023-04-21T12:33:02;94750.84;;;24.10;38.21
6851;BME280;3464;42.728;23.296;2023-04-21T12:35:31;94758.67;;;23.83;38.07
6851;BME280;3464;42.728;23.296;2023-04-21T12:38:00;94758.59;;;22.79;39.16
6851;BME280;3464;42.728;23.296;2023-04-21T12:40:26;94766.08;;;22.19;40.69
6851;BME280;3464;42.728;23.296;2023-04-21T12:42:54;94762.98;;;22.48;40.42
6851;BME280;3464;42.728;23.296;2023-04-21T12:45:21;94759.79;;;22.72;39.85
6851;BME280;3464;42.728;23.296;2023-04-21T12:47:48;94757.11;;;22.56;40.17
6851;BME280;3464;42.728;23.296;2023-04-21T12:50:14;94756.24;;;22.75;39.60
6851;BME280;3464;42.728;23.296;2023-04-21T12:52:41;94752.48;;;23.18;39.40
6851;BME280;3464;42.728;23.296;2023-04-21T12:55:08;94744.92;;;23.83;38.42
6851;BME280;3464;42.728;23.296;2023-04-21T12:57:36;94752.73;;;24.31;37.32
6851;BME280;3464;42.728;23.296;2023-04-21T13:03:02;94745.34;;;23.06;38.72
6851;BME280;3464;42.728;23.296;2023-04-21T13:05:30;94742.48;;;23.03;38.61
6851;BME280;3464;42.728;23.296;2023-04-21T13:07:58;94745.18;;;23.61;37.89
6851;BME280;3464;42.728;23.296;2023-04-21T13:10:28;94742.00;;;23.48;37.41
6851;BME280;3464;42.728;23.296;2023-04-21T13:12:56;94739.04;;;24.14;36.87
6851;BME280;3464;42.728;23.296;2023-04-21T13:15:24;94741.19;;;22.95;37.96
6851;BME280;3464;42.728;23.296;2023-04-21T13:17:51;94742.78;;;23.14;38.06
6851;BME280;3464;42.728;23.296;2023-04-21T13:20:19;94742.48;;;22.94;38.44
6851;BME280;3464;42.728;23.296;2023-04-21T13:22:46;94734.56;;;23.08;38.22
6851;BME280;3464;42.728;23.296;2023-04-21T13:25:15;94722.20;;;23.24;37.86
6851;BME280;3464;42.728;23.296;2023-04-21T13:27:42;94732.36;;;23.52;37.84
6851;BME280;3464;42.728;23.296;2023-04-21T13:30:09;94729.66;;;23.80;37.77
6851;BME280;3464;42.728;23.296;2023-04-21T13:32:36;94731.30;;;24.07;37.47
6851;BME280;3464;42.728;23.296;2023-04-21T13:35:04;94725.03;;;23.70;38.01
6851;BME280;3464;42.728;23.296;2023-04-21T13:37:31;94725.14;;;23.76;37.68
6851;BME280;3464;42.728;23.296;2023-04-21T13:39:58;94725.64;;;24.48;36.67
6851;BME280;3464;42.728;23.296;2023-04-21T13:42:27;94722.55;;;24.97;36.36
6851;BME280;3464;42.728;23.296;2023-04-21T13:44:54;94725.20;;;24.65;36.29
6851;BME280;3464;42.728;23.296;2023-04-21T13:47:21;94721.23;;;24.58;36.01
6851;BME280;3464;42.728;23.296;2023-04-21T13:49:47;94718.84;;;24.63;35.76
6851;BME280;3464;42.728;23.296;2023-04-21T13:52:14;94722.76;;;24.62;36.21
6851;BME280;3464;42.728;23.296;2023-04-21T13:54:41;94716.86;;;24.20;36.78
6851;BME280;3464;42.728;23.296;2023-04-21T13:57:08;94715.30;;;24.81;35.76
6851;BME280;3464;42.728;23.296;2023-04-21T13:59:35;94717.16;;;23.99;37.28
6851;BME280;3464;42.728;23.296;2023-04-21T14:02:02;94712.20;;;24.51;36.38
6851;BME280;3464;42.728;23.296;2023-04-21T14:04:29;94707.03;;;25.13;35.28
6851;BME280;3464;42.728;23.296;2023-04-21T14:06:55;94707.39;;;25.14;35.06
6851;BME280;3464;42.728;23.296;2023-04-21T14:09:23;94700.08;;;24.92;35.41
6851;BME280;3464;42.728;23.296;2023-04-21T14:11:50;94699.87;;;24.02;36.58
6851;BME280;3464;42.728;23.296;2023-04-21T14:14:16;94693.44;;;23.93;36.86
6851;BME280;3464;42.728;23.296;2023-04-21T14:16:43;94694.13;;;24.21;36.68
6851;BME280;3464;42.728;23.296;2023-04-21T14:19:09;94693.16;;;24.62;36.15
6851;BME280;3464;42.728;23.296;2023-04-21T14:21:36;94692.44;;;24.68;36.01
6851;BME280;3464;42.728;23.296;2023-04-21T14:24:03;94689.85;;;24.59;36.26
6851;BME280;3464;42.728;23.296;2023-04-21T14:26:31;94686.83;;;23.88;36.57
6851;BME280;3464;42.728;23.296;2023-04-21T14:28:58;94695.30;;;23.82;36.92
6851;BME280;3464;42.728;23.296;2023-04-21T14:31:26;94685.06;;;23.89;36.96
6851;BME280;3464;42.728;23.296;2023-04-21T14:33:53;94694.72;;;23.52;37.41
6851;BME280;3464;42.728;23.296;2023-04-21T14:36:21;94695.55;;;23.35;37.85
6851;BME280;3464;42.728;23.296;2023-04-21T14:38:48;94696.43;;;23.60;37.66
6851;BME280;3464;42.728;23.296;2023-04-21T14:41:16;94710.91;;;23.10;38.30
6851;BME280;3464;42.728;23.296;2023-04-21T14:43:45;94717.28;;;21.51;41.22
6851;BME280;3464;42.728;23.296;2023-04-21T14:46:13;94718.96;;;21.62;41.58
6851;BME280;3464;42.728;23.296;2023-04-21T14:48:41;94721.12;;;21.01;42.83
6851;BME280;3464;42.728;23.296;2023-04-21T14:51:10;94709.36;;;21.47;42.18
6851;BME280;3464;42.728;23.296;2023-04-21T14:53:37;94710.06;;;21.81;41.43
6851;BME280;3464;42.728;23.296;2023-04-21T14:56:06;94710.45;;;21.91;41.08
6851;BME280;3464;42.728;23.296;2023-04-21T14:58:36;94697.68;;;22.38;40.38
6851;BME280;3464;42.728;23.296;2023-04-21T15:01:03;94703.66;;;21.81;40.01
6851;BME280;3464;42.728;23.296;2023-04-21T15:03:32;94707.41;;;21.83;40.05
6851;BME280;3464;42.728;23.296;2023-04-21T15:05:59;94715.72;;;21.18;40.80
6851;BME280;3464;42.728;23.296;2023-04-21T15:08:27;94717.82;;;20.65;41.63
6851;BME280;3464;42.728;23.296;2023-04-21T15:10:55;94708.34;;;20.78;41.53
6851;BME280;3464;42.728;23.296;2023-04-21T15:13:23;94709.94;;;22.13;39.91
6851;BME280;3464;42.728;23.296;2023-04-21T15:15:51;94707.08;;;22.00;39.51
6851;BME280;3464;42.728;23.296;2023-04-21T15:18:18;94711.20;;;21.84;39.11
6851;BME280;3464;42.728;23.296;2023-04-21T15:20:46;94708.97;;;22.15;38.46
6851;BME280;3464;42.728;23.296;2023-04-21T15:23:14;94706.39;;;22.06;38.34
6851;BME280;3464;42.728;23.296;2023-04-21T15:28:22;94712.13;;;21.22;39.45
6851;BME280;3464;42.728;23.296;2023-04-21T15:30:51;94717.98;;;20.82;39.93
6851;BME280;3464;42.728;23.296;2023-04-21T15:33:18;94720.77;;;21.40;39.38
6851;BME280;3464;42.728;23.296;2023-04-21T15:35:46;94720.00;;;21.78;39.08
6851;BME280;3464;42.728;23.296;2023-04-21T15:38:23;94710.98;;;21.79;39.02
6851;BME280;3464;42.728;23.296;2023-04-21T15:40:50;94712.06;;;22.03;39.28
6851;BME280;3464;42.728;23.296;2023-04-21T15:43:26;94723.26;;;21.22;40.67
6851;BME280;3464;42.728;23.296;2023-04-21T15:48:50;94717.46;;;20.97;41.37
6851;BME280;3464;42.728;23.296;2023-04-21T15:51:23;94721.52;;;20.87;41.49
6851;BME280;3464;42.728;23.296;2023-04-21T15:53:54;94714.78;;;20.67;42.22
6851;BME280;3464;42.728;23.296;2023-04-21T15:56:24;94711.56;;;21.36;41.50
6851;BME280;3464;42.728;23.296;2023-04-21T15:58:52;94709.10;;;21.53;41.22
6851;BME280;3464;42.728;23.296;2023-04-21T16:01:37;94723.79;;;20.44;43.07
6851;BME280;3464;42.728;23.296;2023-04-21T16:04:12;94721.63;;;19.98;44.67
6851;BME280;3464;42.728;23.296;2023-04-21T16:06:57;94731.05;;;20.08;44.06
6851;BME280;3464;42.728;23.296;2023-04-21T16:09:31;94732.11;;;20.38;44.04
6851;BME280;3464;42.728;23.296;2023-04-21T16:12:00;94737.17;;;19.92;44.89
6851;BME280;3464;42.728;23.296;2023-04-21T16:14:32;94738.69;;;20.21;44.62
6851;BME280;3464;42.728;23.296;2023-04-21T16:17:09;94739.30;;;20.39;44.37
6851;BME280;3464;42.728;23.296;2023-04-21T16:19:40;94730.02;;;19.15;46.71
6851;BME280;3464;42.728;23.296;2023-04-21T16:22:11;94729.86;;;19.59;46.03
6851;BME280;3464;42.728;23.296;2023-04-21T16:24:41;94729.02;;;19.34;46.60
6851;BME280;3464;42.728;23.296;2023-04-21T16:27:20;94733.50;;;19.40;46.22
6851;BME280;3464;42.728;23.296;2023-04-21T16:29:48;94729.16;;;19.16;46.64
6851;BME280;3464;42.728;23.296;2023-04-21T16:32:21;94727.63;;;18.85;47.32
6851;BME280;3464;42.728;23.296;2023-04-21T16:34:55;94737.59;;;18.65;47.70
6851;BME280;3464;42.728;23.296;2023-04-21T16:37:24;94735.27;;;19.12;47.47
6851;BME280;3464;42.728;23.296;2023-04-21T16:39:52;94733.58;;;18.85;47.77
6851;BME280;3464;42.728;23.296;2023-04-21T16:42:20;94732.95;;;19.31;46.92
6851;BME280;3464;42.728;23.296;2023-04-21T16:44:50;94730.10;;;19.40;46.66
6851;BME280;3464;42.728;23.296;2023-04-21T16:47:23;94734.08;;;19.22;46.43
6851;BME280;3464;42.728;23.296;2023-04-21T16:49:55;94730.87;;;19.16;46.80
6851;BME280;3464;42.728;23.296;2023-04-21T16:52:27;94739.33;;;19.17;46.82
6851;BME280;3464;42.728;23.296;2023-04-21T16:54:58;94736.06;;;19.13;46.96
6851;BME280;3464;42.728;23.296;2023-04-21T16:57:26;94737.59;;;19.32;46.66
6851;BME280;3464;42.728;23.296;2023-04-21T16:59:55;94739.98;;;19.11;46.99
6851;BME280;3464;42.728;23.296;2023-04-21T17:02:26;94738.81;;;19.34;46.55
6851;BME280;3464;42.728;23.296;2023-04-21T17:04:56;94744.45;;;19.55;46.32
6851;BME280;3464;42.728;23.296;2023-04-21T17:07:25;94738.23;;;19.24;46.87
6851;BME280;3464;42.728;23.296;2023-04-21T17:09:53;94743.82;;;18.70;48.26
6851;BME280;3464;42.728;23.296;2023-04-21T17:12:20;94744.67;;;19.10;47.58
6851;BME280;3464;42.728;23.296;2023-04-21T17:14:50;94747.03;;;18.76;48.16
6851;BME280;3464;42.728;23.296;2023-04-21T17:17:18;94753.98;;;19.11;47.50
6851;BME280;3464;42.728;23.296;2023-04-21T17:19:46;94754.72;;;18.61;48.75
6851;BME280;3464;42.728;23.296;2023-04-21T17:22:14;94757.13;;;18.38;49.43
6851;BME280;3464;42.728;23.296;2023-04-21T17:24:42;94757.37;;;18.72;49.12
6851;BME280;3464;42.728;23.296;2023-04-21T17:27:09;94765.64;;;18.22;50.28
6851;BME280;3464;42.728;23.296;2023-04-21T17:29:40;94766.95;;;18.20;50.43
6851;BME280;3464;42.728;23.296;2023-04-21T17:32:08;94770.13;;;17.98;51.10
6851;BME280;3464;42.728;23.296;2023-04-21T17:34:35;94768.17;;;18.38;50.35
6851;BME280;3464;42.728;23.296;2023-04-21T17:37:03;94763.59;;;18.63;49.93
6851;BME280;3464;42.728;23.296;2023-04-21T17:39:32;94770.57;;;18.57;50.21
6851;BME280;3464;42.728;23.296;2023-04-21T17:42:01;94782.13;;;18.54;50.29
6851;BME280;3464;42.728;23.296;2023-04-21T17:44:29;94784.64;;;18.42;50.58
6851;BME280;3464;42.728;23.296;2023-04-21T17:49:59;94791.45;;;17.63;52.63
6851;BME280;3464;42.728;23.296;2023-04-21T17:52:26;94795.53;;;17.85;52.33
6851;BME280;3464;42.728;23.296;2023-04-21T17:54:54;94795.45;;;18.34;51.52
6851;BME280;3464;42.728;23.296;2023-04-21T17:57:24;94798.78;;;17.75;52.61
6851;BME280;3464;42.728;23.296;2023-04-21T18:03:08;94799.67;;;17.73;52.78
6851;BME280;3464;42.728;23.296;2023-04-21T18:05:35;94806.84;;;17.91;52.49
6851;BME280;3464;42.728;23.296;2023-04-21T18:08:02;94806.45;;;17.39;53.47